Home > Products > Valid Products > TAF

000
FTUS46 KPDT 261352 AAA
TAFPSC
TAF AMD
KPSC 261352Z 2614/2712 VRB05KT P6SM SCT080 BKN130
     FM261800 23006KT P6SM SCT080 BKN100
     FM270000 32008KT P6SM VCSH SCT070 BKN090
     FM270600 15006KT P6SM -SHRA BKN070 OVC090=



000
FTUS46 KPDT 261337 AAA
TAFALW
TAF AMD
KALW 261337Z 2614/2712 VRB05KT P6SM VCSH OVC100
     FM262100 25008KT P6SM VCSH SCT050 BKN090
     FM270200 09005KT P6SM SCT100 SCT150
     FM270800 15006KT P6SM -SHRA BKN060 OVC080=



000
FTUS46 KPDT 261140
TAFPDT
TAF
KPDT 261140Z 2612/2712 VRB06KT P6SM SCT100
     FM262100 31008KT P6SM VCSH SCT050 BKN090=



000
FTUS46 KPDT 261140
TAFDLS
TAF
KDLS 261140Z 2612/2712 31010KT P6SM SCT080
     FM261800 32012G18KT P6SM SCT070
     FM270100 32010KT P6SM SCT200 BKN250
     FM270500 31008KT P6SM SCT100 SCT140=



000
FTUS46 KPDT 261140
TAFDLS
TAF
KDLS 261140Z 2612/2712 31010KT P6SM SCT080
     FM261800 32012G18KT P6SM SCT070
     FM270100 32010KT P6SM SCT200 BKN250
     FM270500 31008KT P6SM SCT100 SCT140=



000
FTUS46 KPDT 261140
TAFPDT
TAF
KPDT 261140Z 2612/2712 VRB06KT P6SM SCT100
     FM262100 31008KT P6SM VCSH SCT050 BKN090=



000
FTUS46 KPDT 261140
TAFPSC
TAF
KPSC 261140Z 2612/2712 21004KT P6SM BKN110
     FM262000 32008KT P6SM VCSH SCT050 BKN090=



000
FTUS46 KPDT 261140
TAFYKM
TAF
KYKM 261140Z 2612/2712 VRB05KT P6SM SCT070
     FM262000 31007KT P6SM VCSH SCT060 BKN080
     FM270400 29006KT P6SM SCT060=



000
FTUS46 KPDT 261140
TAFALW
TAF
KALW 261140Z 2612/2712 18006KT P6SM OVC100
     FM262100 25008KT P6SM VCSH SCT050 BKN090=



000
FTUS46 KPDT 261140
TAFRDM
TAF
KRDM 261140Z 2612/2712 19005KT P6SM SKC
     FM261800 34006KT P6SM SKC
     FM262100 33009KT P6SM FEW070
     FM262300 33011G19KT P6SM SCT070
     FM270500 VRB04KT P6SM BKN040=



000
FTUS46 KPDT 261140
TAFRDM
TAF
KRDM 261140Z 2612/2712 19005KT P6SM SKC
     FM261800 34006KT P6SM SKC
     FM262100 33009KT P6SM FEW070
     FM262300 33011G19KT P6SM SCT070
     FM270500 VRB04KT P6SM BKN040=



000
FTUS46 KPDT 261140
TAFALW
TAF
KALW 261140Z 2612/2712 18006KT P6SM OVC100
     FM262100 25008KT P6SM VCSH SCT050 BKN090=



000
FTUS46 KPDT 261140
TAFYKM
TAF
KYKM 261140Z 2612/2712 VRB05KT P6SM SCT070
     FM262000 31007KT P6SM VCSH SCT060 BKN080
     FM270400 29006KT P6SM SCT060=



000
FTUS46 KPDT 261140
TAFPSC
TAF
KPSC 261140Z 2612/2712 21004KT P6SM BKN110
     FM262000 32008KT P6SM VCSH SCT050 BKN090=



000
FTUS46 KPDT 261118 AAA
TAFDLS
TAF AMD
KDLS 261118Z 2611/2706 31010KT P6SM SCT080
     FM261800 32012G18KT P6SM SCT070
     FM270100 32010KT P6SM SCT200 BKN250
     FM270500 31008KT P6SM SCT100 SCT140=



000
FTUS46 KPDT 261118 AAA
TAFDLS
TAF AMD
KDLS 261118Z 2611/2706 31010KT P6SM SCT080
     FM261800 32012G18KT P6SM SCT070
     FM270100 32010KT P6SM SCT200 BKN250
     FM270500 31008KT P6SM SCT100 SCT140=



000
FTUS46 KPDT 261059 AAA
TAFRDM
TAF AMD
KRDM 261059Z 2611/2706 19005KT P6SM SKC
     FM261800 34006KT P6SM SKC
     FM262100 33009KT P6SM FEW070
     FM262300 33011G19KT P6SM SCT070
     FM270500 VRB04KT P6SM BKN040=



000
FTUS46 KPDT 261059 AAA
TAFRDM
TAF AMD
KRDM 261059Z 2611/2706 19005KT P6SM SKC
     FM261800 34006KT P6SM SKC
     FM262100 33009KT P6SM FEW070
     FM262300 33011G19KT P6SM SCT070
     FM270500 VRB04KT P6SM BKN040=



000
FTUS46 KPDT 260648 AAA
TAFYKM
TAF AMD
KYKM 260648Z 2607/2706 32013G22KT P6SM SCT080
     FM262000 31007KT P6SM VCSH SCT050 BKN080
     FM270400 29006KT P6SM SCT060=



000
FTUS46 KPDT 260648 AAA
TAFYKM
TAF AMD
KYKM 260648Z 2607/2706 32013G22KT P6SM SCT080
     FM262000 31007KT P6SM VCSH SCT050 BKN080
     FM270400 29006KT P6SM SCT060=



000
FTUS46 KPDT 260520
TAFDLS
TAF
KDLS 260520Z 2606/2706 31012KT P6SM SCT080
     FM261800 31014G23KT P6SM VCSH BKN070=



000
FTUS46 KPDT 260520
TAFYKM
TAF
KYKM 260520Z 2606/2706 28009KT P6SM BKN080
     FM262000 31007KT P6SM VCSH SCT050 BKN080=



000
FTUS46 KPDT 260520
TAFRDM
TAF
KRDM 260520Z 2606/2706 VRB05KT P6SM SKC
     FM261800 33007KT P6SM SCT070=



000
FTUS46 KPDT 260520
TAFPSC
TAF
KPSC 260520Z 2606/2706 21005KT P6SM BKN080
      TEMPO 2606/2607 -SHRA
     FM262000 32008KT P6SM VCSH SCT050 BKN090=



000
FTUS46 KPDT 260520
TAFPDT
TAF
KPDT 260520Z 2606/2706 27006KT P6SM BKN080
      TEMPO 2606/2608 -SHRA
     FM262100 31008KT P6SM VCSH SCT050 BKN090=



000
FTUS46 KPDT 260520
TAFALW
TAF
KALW 260520Z 2606/2706 22005KT P6SM BKN070
      TEMPO 2606/2608 -SHRA
     FM262100 25008KT P6SM VCSH SCT050 BKN090=



000
FTUS46 KPDT 260336 AAB
TAFPDT
TAF AMD
KPDT 260336Z 2604/2624 29007KT P6SM SCT050 BKN120
      TEMPO 2604/2606 -SHRA
     FM260700 16007KT P6SM FEW030 SCT070 BKN150
     FM261200 18005KT P6SM SCT030 SCT070 BKN150
     FM261500 21006KT P6SM SCT030 BKN070 OVC150
     FM261800 26008KT P6SM SCT050 BKN150=



000
FTUS46 KPDT 260335 AAA
TAFALW
TAF AMD
KALW 260335Z 2604/2624 18005KT P6SM FEW050 SCT100 BKN120
      TEMPO 2604/2606 -SHRA
     FM260700 18007KT P6SM SCT050 BKN080 BKN150
     FM261200 18007KT P6SM SCT050 BKN080 OVC150
     FM261700 23004KT P6SM SCT050 SCT150
     FM262100 26006KT P6SM SCT050 BKN150=



000
FTUS46 KPDT 252320
TAFPDT
TAF
KPDT 252320Z 2600/2624 22007KT P6SM SCT050
     FM260400 22007KT P6SM VCSH SCT050 BKN120
     FM260700 16007KT P6SM FEW030 SCT070 BKN150
     FM261200 18005KT P6SM SCT030 SCT070 BKN150
     FM261500 21006KT P6SM SCT030 BKN070 OVC150
     FM261800 26008KT P6SM SCT050 BKN150=



000
FTUS46 KPDT 252320
TAFYKM
TAF
KYKM 252320Z 2600/2624 31008KT P6SM VCSH SCT050 BKN100
     FM260400 32009G17KT P6SM SCT050 SCT100
     FM260700 33006KT P6SM SCT100 SCT150
     FM261500 35004KT P6SM FEW100
     FM261800 VRB06KT P6SM FEW050 BKN150=



000
FTUS46 KPDT 252320
TAFPSC
TAF
KPSC 252320Z 2600/2624 21009KT P6SM SCT070
     FM260300 21009KT P6SM VCSH BKN070 BKN120
     FM260600 18006KT P6SM BKN070 OVC120
     FM261200 21006KT P6SM SCT080 BKN150
     FM262100 26006KT P6SM SCT080 BKN150=



000
FTUS46 KPDT 252320
TAFALW
TAF
KALW 252320Z 2600/2624 20009KT P6SM FEW050
     FM260300 18005KT P6SM VCSH FEW050 SCT100 BKN120
     FM260700 18007KT P6SM SCT050 BKN080 BKN150
     FM261200 18007KT P6SM SCT050 BKN080 OVC150
     FM261700 23004KT P6SM SCT050 SCT150
     FM262100 26006KT P6SM SCT050 BKN150=



000
FTUS46 KPDT 252320
TAFRDM
TAF
KRDM 252320Z 2600/2624 32009G17KT P6SM SKC
     FM260300 33008KT P6SM SKC
     FM260800 20003KT P6SM SCT030
     FM261700 34007KT P6SM SKC
     FM262100 34010KT P6SM FEW050=



000
FTUS46 KPDT 252320
TAFDLS
TAF
KDLS 252320Z 2600/2624 32019G25KT P6SM SKC
     FM260300 32011KT P6SM FEW030
     FM261200 31008KT P6SM SCT030
     FM261700 31015G25KT P6SM FEW030 SCT150=



000
FTUS46 KPDT 252107 AAA
TAFPSC
TAF AMD
KPSC 252107Z 2521/2618 19009G15KT P6SM SCT070
     FM260300 21009KT P6SM BKN070 BKN120
     FM260600 18006KT P6SM BKN070 OVC120
     FM261200 21006KT P6SM SCT080 BKN150=



000
FTUS46 KPDT 252105 AAA
TAFRDM
TAF AMD
KRDM 252105Z 2521/2618 33006KT P6SM SKC
     FM252300 32009G17KT P6SM SKC
     FM260300 33008KT P6SM SKC
     FM260800 20003KT P6SM SCT030
     FM261700 34007KT P6SM SKC=



000
FTUS46 KPDT 252105 AAB
TAFALW
TAF AMD
KALW 252105Z 2521/2618 20010G17KT P6SM FEW050
     FM260300 18005KT P6SM FEW050 SCT100 SCT200
     FM260700 18007KT P6SM SCT050 BKN080 BKN150
     FM261200 18007KT P6SM SCT050 BKN080 OVC150
     FM261700 23004KT P6SM SCT080 SCT150=



000
FTUS46 KPDT 252057 AAB
TAFPDT
TAF AMD
KPDT 252057Z 2521/2618 29010G18KT P6SM FEW050
     FM260300 22007KT P6SM SCT050
     FM260700 16007KT P6SM FEW030 SCT070 BKN150
     FM261200 18005KT P6SM SCT030 SCT070 BKN150
     FM261500 21006KT P6SM SCT030 BKN070 OVC150=



000
FTUS46 KPDT 251839 AAA
TAFALW
TAF AMD
KALW 251839Z 2519/2618 22010G17KT P6SM OVC050
     FM252000 22010G17KT P6SM FEW050
     FM260300 18005KT P6SM FEW050 SCT100 SCT200
     FM260700 18007KT P6SM SCT050 BKN080 BKN150
     FM261200 18007KT P6SM SCT050 BKN080 OVC150
     FM261700 23004KT P6SM SCT080 SCT150=



000
FTUS46 KPDT 251837 AAA
TAFYKM
TAF AMD
KYKM 251837Z 2519/2618 33007KT P6SM FEW050
     FM252100 31008KT P6SM SCT050
     FM260300 32009G17KT P6SM SCT050 SCT100
     FM260700 33006KT P6SM SCT100 SCT150
     FM261500 35004KT P6SM FEW100=



000
FTUS46 KPDT 251737
TAFRDM
TAF
KRDM 251737Z 2518/2618 33008KT P6SM FEW200
     FM252100 32009G17KT P6SM SKC
     FM260300 33008KT P6SM SKC
     FM260800 20003KT P6SM SCT030
     FM261700 34007KT P6SM SKC=



000
FTUS46 KPDT 251737
TAFALW
TAF
KALW 251737Z 2518/2618 22010G17KT P6SM SKC
     FM260300 18005KT P6SM FEW050 SCT100 SCT200
     FM260700 18007KT P6SM SCT050 BKN080 BKN150
     FM261200 18007KT P6SM SCT050 BKN080 OVC150
     FM261700 23004KT P6SM SCT080 SCT150=



000
FTUS46 KPDT 251737
TAFYKM
TAF
KYKM 251737Z 2518/2618 33007KT P6SM SKC
     FM252100 31008KT P6SM SCT050
     FM260300 32009G17KT P6SM SCT050 SCT100
     FM260700 33006KT P6SM SCT100 SCT150
     FM261500 35004KT P6SM FEW100=



000
FTUS46 KPDT 251737
TAFPDT
TAF
KPDT 251737Z 2518/2618 15004KT P6SM SCT060 BKN200
     FM251900 27010KT P6SM SKC
     FM252100 29010G18KT P6SM SKC
     FM260300 22007KT P6SM SKC
     FM260700 16007KT P6SM FEW030 SCT070 BKN150
     FM261200 18005KT P6SM SCT030 SCT070 BKN150
     FM261500 21006KT P6SM SCT030 BKN070 OVC150=



000
FTUS46 KPDT 251737
TAFDLS
TAF
KDLS 251737Z 2518/2618 32015G25KT P6SM SKC
     FM260300 32011KT P6SM FEW030
     FM261200 31008KT P6SM SCT030
     FM261700 31015G25KT P6SM FEW030=



000
FTUS46 KPDT 251737
TAFPSC
TAF
KPSC 251737Z 2518/2618 21010KT P6SM SKC
     FM252100 24010G18KT P6SM SCT070
     FM260300 21009KT P6SM BKN070 BKN120
     FM260600 18006KT P6SM BKN070 OVC120
     FM261200 21006KT P6SM SCT080 BKN150=



000
FTUS46 KPDT 251140
TAFDLS
TAF
KDLS 251140Z 2512/2612 31010KT P6SM FEW150 BKN180
     FM251600 32014G22KT P6SM SCT060 SCT200
     FM251900 32015G25KT P6SM FEW070
     FM260300 32010KT P6SM FEW120=



000
FTUS46 KPDT 251140
TAFPDT
TAF
KPDT 251140Z 2512/2612 18007KT P6SM SCT200
     FM251800 26009KT P6SM SCT060 SCT200
     FM252100 29010G18KT P6SM BKN250
     FM260300 22007KT P6SM SCT250
     FM260700 16007KT P6SM SCT070 BKN140=



000
FTUS46 KPDT 251140
TAFRDM
TAF
KRDM 251140Z 2512/2612 19005KT P6SM SCT200
     FM251800 31008KT P6SM FEW150 SCT200
     FM252100 32010G18KT P6SM FEW060 FEW200
     FM260300 30008KT P6SM SKC=



000
FTUS46 KPDT 251140
TAFALW
TAF
KALW 251140Z 2512/2612 18012KT P6SM SCT050 SCT200
     FM251800 21010KT P6SM SCT070 BKN200
     FM252100 23008G16KT P6SM SCT070 SCT200
     FM260300 20005KT P6SM SCT250
     FM260700 18007KT P6SM SCT070 BKN140=



000
FTUS46 KPDT 251140
TAFYKM
TAF
KYKM 251140Z 2512/2612 33012KT P6SM SCT060 BKN200
     FM251900 14005KT P6SM SCT070 SCT250
     FM260300 32010KT P6SM SCT080
     FM260700 33006KT P6SM BKN090 BKN150=



000
FTUS46 KPDT 251140
TAFPSC
TAF
KPSC 251140Z 2512/2612 18012KT P6SM BKN180
     FM251800 21010KT P6SM SCT060 BKN250
     FM252100 24010G18KT P6SM BKN060
     FM260300 21009KT P6SM BKN070
     FM260600 18006KT P6SM BKN070=



000
FTUS46 KPDT 250838 AAA
TAFALW
TAF AMD
KALW 250838Z 2509/2606 18010KT P6SM SCT250
     FM251000 17007KT P6SM FEW250
     FM252100 22008G15KT P6SM SCT250
     FM260300 20005KT P6SM SCT250=



000
FTUS46 KPDT 250837 AAB
TAFPDT
TAF AMD
KPDT 250837Z 2509/2606 27011KT P6SM SCT250
     FM251200 24007KT P6SM FEW250
     FM251700 28008G15KT P6SM SCT250
     FM252100 27008G15KT P6SM FEW250=



000
FTUS46 KPDT 250836 AAA
TAFDLS
TAF AMD
KDLS 250836Z 2509/2606 31008KT P6SM SCT250
     FM251000 31006KT P6SM FEW250
     FM251500 31012G20KT P6SM SCT250
     FM251800 32010G20KT P6SM FEW250=



000
FTUS46 KPDT 250520
TAFPDT
TAF
KPDT 250520Z 2506/2606 31008G15KT P6SM FEW100 SCT250
     FM251200 24007KT P6SM FEW250
     FM251700 28008G15KT P6SM SCT250
     FM252100 27008G15KT P6SM FEW250=



000
FTUS46 KPDT 250520
TAFDLS
TAF
KDLS 250520Z 2506/2606 28020G30KT P6SM SCT250
     FM251000 30008G15KT P6SM FEW250
     FM251500 31014G20KT P6SM SCT250
     FM251800 32010G20KT P6SM FEW250=



000
FTUS46 KPDT 250520
TAFPSC
TAF
KPSC 250520Z 2506/2606 28009KT P6SM SCT250
     FM251600 21008G15KT P6SM BKN250
     FM252200 22008G15KT P6SM SCT250=



000
FTUS46 KPDT 250520
TAFYKM
TAF
KYKM 250520Z 2506/2606 32015G25KT P6SM SCT080 SCT250
     FM251000 28006KT P6SM FEW250
     FM252000 33007KT P6SM SCT070 BKN250=



000
FTUS46 KPDT 250520
TAFALW
TAF
KALW 250520Z 2506/2606 12006KT P6SM FEW100 SCT250
     FM251000 17007KT P6SM FEW250
     FM252100 22008G15KT P6SM SCT250
     FM260300 20005KT P6SM SCT250=



000
FTUS46 KPDT 250520
TAFRDM
TAF
KRDM 250520Z 2506/2606 32007KT P6SM FEW060 SCT250
     FM251200 17005KT P6SM FEW250
     FM251800 31008KT P6SM SCT250
     FM252300 32008G15KT P6SM FEW250=



000
FTUS46 KPDT 250324 AAB
TAFYKM
TAF AMD
KYKM 250324Z 2503/2524 34010G20KT P6SM SCT080 SCT250
     FM250700 31008KT P6SM SCT250
     FM251200 VRB05KT P6SM SCT250
     FM252000 32007KT P6SM SCT090=



000
FTUS46 KPDT 250231 AAA
TAFYKM
TAF AMD
KYKM 250231Z 2503/2524 32015G25KT P6SM SCT080 SCT200
     FM250700 31008KT P6SM SCT200
     FM251200 VRB05KT P6SM SCT200
     FM252000 32007KT P6SM SCT090=



000
FTUS46 KPDT 250230 AAB
TAFRDM
TAF AMD
KRDM 250230Z 2503/2524 29008G15KT P6SM FEW060 SCT250
     FM250700 VRB04KT P6SM SCT200
     FM252000 33010KT P6SM SCT200=



000
FTUS46 KPDT 250230 AAB
TAFRDM
TAF AMD
KRDM 250230Z 2503/2524 29008G15KT P6SM FEW060 SCT250
     FM250700 VRB04KT P6SM SCT200
     FM252000 33010KT P6SM SCT200=



000
FTUS46 KPDT 250100 AAA
TAFRDM
TAF AMD
KRDM 250100Z 2501/2524 35008G15KT P6SM VCSH SCT060 SCT250
     FM250700 VRB04KT P6SM SCT200
     FM252000 33010KT P6SM SCT200=



000
FTUS46 KPDT 250100 AAA
TAFRDM
TAF AMD
KRDM 250100Z 2501/2524 35008G15KT P6SM VCSH SCT060 SCT250
     FM250700 VRB04KT P6SM SCT200
     FM252000 33010KT P6SM SCT200=



000
FTUS46 KPDT 242327
TAFPDT
TAF
KPDT 242327Z 2500/2524 29009KT P6SM SCT100 SCT250
     FM250400 24010KT P6SM SCT250
     FM251200 22008KT P6SM SCT200
     FM251800 28011KT P6SM SCT200=



000
FTUS46 KPDT 242327
TAFRDM
TAF
KRDM 242327Z 2500/2524 33012G20KT P6SM VCSH SCT060 SCT250
     FM250500 VRB04KT P6SM SCT200
     FM252000 33010KT P6SM SCT200=



000
FTUS46 KPDT 242327
TAFDLS
TAF
KDLS 242327Z 2500/2524 32022G32KT P6SM FEW250
     FM250300 32017G27KT P6SM FEW200
     FM250600 31014G24KT P6SM SCT200
     FM251000 31011KT P6SM BKN200
     FM251500 31014G20KT P6SM BKN200
     FM251800 32015G25KT P6SM SKC=



000
FTUS46 KPDT 242327
TAFDLS
TAF
KDLS 242327Z 2500/2524 32022G32KT P6SM FEW250
     FM250300 32017G27KT P6SM FEW200
     FM250600 31014G24KT P6SM SCT200
     FM251000 31011KT P6SM BKN200
     FM251500 31014G20KT P6SM BKN200
     FM251800 32015G25KT P6SM SKC=



000
FTUS46 KPDT 242327
TAFALW
TAF
KALW 242327Z 2500/2524 VRB06KT P6SM SCT100 SCT250
     FM250300 17009KT P6SM SCT060 SCT200
     FM251500 22010KT P6SM BKN200
     FM252200 24007KT P6SM SKC=



000
FTUS46 KPDT 242327
TAFPSC
TAF
KPSC 242327Z 2500/2524 VRB06KT P6SM SCT250
     FM250300 24008KT P6SM SCT100 BKN200
     FM251200 21008KT P6SM BKN200
     FM252000 23010KT P6SM SKC=



000
FTUS46 KPDT 242327
TAFYKM
TAF
KYKM 242327Z 2500/2524 30011KT P6SM VCSH SCT080 SCT200
     FM250700 31008KT P6SM SCT200
     FM251200 VRB05KT P6SM SCT200
     FM252000 32007KT P6SM SCT090=



000
FTUS46 KPDT 242327
TAFPDT
TAF
KPDT 242327Z 2500/2524 29009KT P6SM SCT100 SCT250
     FM250400 24010KT P6SM SCT250
     FM251200 22008KT P6SM SCT200
     FM251800 28011KT P6SM SCT200=



000
FTUS46 KPDT 242327
TAFRDM
TAF
KRDM 242327Z 2500/2524 33012G20KT P6SM VCSH SCT060 SCT250
     FM250500 VRB04KT P6SM SCT200
     FM252000 33010KT P6SM SCT200=



000
FTUS46 KPDT 242327
TAFALW
TAF
KALW 242327Z 2500/2524 VRB06KT P6SM SCT100 SCT250
     FM250300 17009KT P6SM SCT060 SCT200
     FM251500 22010KT P6SM BKN200
     FM252200 24007KT P6SM SKC=



000
FTUS46 KPDT 242327
TAFPSC
TAF
KPSC 242327Z 2500/2524 VRB06KT P6SM SCT250
     FM250300 24008KT P6SM SCT100 BKN200
     FM251200 21008KT P6SM BKN200
     FM252000 23010KT P6SM SKC=



000
FTUS46 KPDT 242327
TAFYKM
TAF
KYKM 242327Z 2500/2524 30011KT P6SM VCSH SCT080 SCT200
     FM250700 31008KT P6SM SCT200
     FM251200 VRB05KT P6SM SCT200
     FM252000 32007KT P6SM SCT090=



000
FTUS46 KPDT 241728
TAFDLS
TAF
KDLS 241728Z 2418/2518 32015G25KT P6SM FEW250
     FM242000 32018G28KT P6SM SCT250
     FM250600 31013G23KT P6SM SCT200
     FM251000 31011KT P6SM BKN200
     FM251500 31014G20KT P6SM BKN180=



000
FTUS46 KPDT 241728
TAFDLS
TAF
KDLS 241728Z 2418/2518 32015G25KT P6SM FEW250
     FM242000 32018G28KT P6SM SCT250
     FM250600 31013G23KT P6SM SCT200
     FM251000 31011KT P6SM BKN200
     FM251500 31014G20KT P6SM BKN180=



000
FTUS46 KPDT 241728
TAFRDM
TAF
KRDM 241728Z 2418/2518 VRB04KT P6SM SKC
     FM242000 33010KT P6SM FEW250
     FM250400 VRB04KT P6SM SCT250=



000
FTUS46 KPDT 241728
TAFALW
TAF
KALW 241728Z 2418/2518 21010KT P6SM SKC
     FM242100 23009KT P6SM FEW250
     FM250200 17009KT P6SM SCT200
     FM251500 21010KT P6SM BKN200=



000
FTUS46 KPDT 241728
TAFPDT
TAF
KPDT 241728Z 2418/2518 28008KT P6SM SKC
     FM242100 29009KT P6SM FEW250
     FM250400 24009KT P6SM SCT200
     FM251200 22009KT P6SM BKN200
     FM251700 26011KT P6SM BKN200=



000
FTUS46 KPDT 241728
TAFPSC
TAF
KPSC 241728Z 2418/2518 21009KT P6SM FEW250
     FM242100 21008KT P6SM SCT250
     FM250300 22007KT P6SM BKN200=



000
FTUS46 KPDT 241728
TAFYKM
TAF
KYKM 241728Z 2418/2518 VRB05KT P6SM SCT200
     FM242100 VRB06KT P6SM SCT120 BKN200
     FM250000 32011KT P6SM VCSH SCT090 BKN200
     FM250600 31008KT P6SM BKN200
     FM251200 30005KT P6SM BKN200=



000
FTUS46 KPDT 241358 AAA
TAFDLS
TAF AMD
KDLS 241358Z 2414/2512 32012G22KT P6SM SCT250
     FM241800 32018G26KT P6SM FEW150 SCT250
     FM242300 32018G26KT P6SM SCT150 BKN250
     FM250600 31013G21KT P6SM FEW200 SCT250
     FM251000 31011KT P6SM SCT200 BKN250=



000
FTUS46 KPDT 241340 AAA
TAFYKM
TAF AMD
KYKM 241340Z 2414/2512 27006KT P6SM SCT150
     FM242100 VRB05KT P6SM VCSH SCT080 SCT200
     FM250200 33010KT P6SM FEW200 SCT250
     FM250900 31007KT P6SM SCT200 BKN250=



000
FTUS46 KPDT 241340 AAA
TAFYKM
TAF AMD
KYKM 241340Z 2414/2512 27006KT P6SM SCT150
     FM242100 VRB05KT P6SM VCSH SCT080 SCT200
     FM250200 33010KT P6SM FEW200 SCT250
     FM250900 31007KT P6SM SCT200 BKN250=



000
FTUS46 KPDT 241141
TAFYKM
TAF
KYKM 241141Z 2412/2512 35008KT P6SM FEW120
     FM242100 28008G15KT P6SM VCSH SCT080 SCT250=



000
FTUS46 KPDT 241141
TAFRDM
TAF
KRDM 241141Z 2412/2512 VRB04KT P6SM SKC
     FM242100 33009KT P6SM FEW120 SCT250
     FM250300 30006KT P6SM FEW060 SCT100=



000
FTUS46 KPDT 241141
TAFPSC
TAF
KPSC 241141Z 2412/2512 22007KT P6SM SCT130
     FM241500 21007KT P6SM FEW120 SCT250
     FM242100 20008G15KT P6SM FEW090 SCT130
     FM250300 21005KT P6SM SCT200=



000
FTUS46 KPDT 241141
TAFDLS
TAF
KDLS 241141Z 2412/2512 32012KT P6SM SKC
     FM241800 32012G20KT P6SM FEW150 SCT250
     FM242300 32012G20KT P6SM SCT150 BKN250=



000
FTUS46 KPDT 241141
TAFRDM
TAF
KRDM 241141Z 2412/2512 VRB04KT P6SM SKC
     FM242100 33009KT P6SM FEW120 SCT250
     FM250300 30006KT P6SM FEW060 SCT100=



000
FTUS46 KPDT 241141
TAFALW
TAF
KALW 241141Z 2412/2512 19007KT P6SM SCT100 SCT120
     FM241500 21008KT P6SM SCT100 SCT120
     FM242100 24009KT P6SM SCT070 SCT120
     FM250200 21008KT P6SM FEW080 SCT120
     FM250600 18007KT P6SM SCT200=



000
FTUS46 KPDT 241141
TAFPDT
TAF
KPDT 241141Z 2412/2512 18008KT P6SM FEW100 SCT120
     FM242100 29009KT P6SM SCT080 SCT250
     FM250100 28008KT P6SM FEW080 SCT120
     FM250600 24006KT P6SM SCT200=



000
FTUS46 KPDT 241141
TAFALW
TAF
KALW 241141Z 2412/2512 19007KT P6SM SCT100 SCT120
     FM241500 21008KT P6SM SCT100 SCT120
     FM242100 24009KT P6SM SCT070 SCT120
     FM250200 21008KT P6SM FEW080 SCT120
     FM250600 18007KT P6SM SCT200=



000
FTUS46 KPDT 241141
TAFPSC
TAF
KPSC 241141Z 2412/2512 22007KT P6SM SCT130
     FM241500 21007KT P6SM FEW120 SCT250
     FM242100 20008G15KT P6SM FEW090 SCT130
     FM250300 21005KT P6SM SCT200=



000
FTUS46 KPDT 241141
TAFDLS
TAF
KDLS 241141Z 2412/2512 32012KT P6SM SKC
     FM241800 32012G20KT P6SM FEW150 SCT250
     FM242300 32012G20KT P6SM SCT150 BKN250=



000
FTUS46 KPDT 241141
TAFYKM
TAF
KYKM 241141Z 2412/2512 35008KT P6SM FEW120
     FM242100 28008G15KT P6SM VCSH SCT080 SCT250=



000
FTUS46 KPDT 241141
TAFPDT
TAF
KPDT 241141Z 2412/2512 18008KT P6SM FEW100 SCT120
     FM242100 29009KT P6SM SCT080 SCT250
     FM250100 28008KT P6SM FEW080 SCT120
     FM250600 24006KT P6SM SCT200=



000
FTUS46 KPDT 241128 AAB
TAFPDT
TAF AMD
KPDT 241128Z 2411/2506 20007KT P6SM SCT100 BKN120
     FM241300 18006KT P6SM FEW100 SCT120
     FM242100 29009KT P6SM SCT080 SCT250
     FM250100 28008KT P6SM FEW080 FEW250
     FM250400 25006KT P6SM SCT200=



000
FTUS46 KPDT 241128 AAB
TAFPDT
TAF AMD
KPDT 241128Z 2411/2506 20007KT P6SM SCT100 BKN120
     FM241300 18006KT P6SM FEW100 SCT120
     FM242100 29009KT P6SM SCT080 SCT250
     FM250100 28008KT P6SM FEW080 FEW250
     FM250400 25006KT P6SM SCT200=



000
FTUS46 KPDT 241102 AAA
TAFDLS
TAF AMD
KDLS 241102Z 2411/2506 32012KT P6SM FEW150
     FM241200 31010KT P6SM SKC
     FM241800 32012G20KT P6SM FEW150 SCT250
     FM242300 32012G20KT P6SM SCT150 BKN250=



000
FTUS46 KPDT 241102 AAA
TAFDLS
TAF AMD
KDLS 241102Z 2411/2506 32012KT P6SM FEW150
     FM241200 31010KT P6SM SKC
     FM241800 32012G20KT P6SM FEW150 SCT250
     FM242300 32012G20KT P6SM SCT150 BKN250=



000
FTUS46 KPDT 241048 AAA
TAFALW
TAF AMD
KALW 241048Z 2411/2506 18007KT P6SM SCT040 BKN120
     FM241500 21008G15KT P6SM SCT050 BKN120
     FM250000 23008G15KT P6SM VCSH BKN050 OVC120=



000
FTUS46 KPDT 241048 AAA
TAFALW
TAF AMD
KALW 241048Z 2411/2506 18007KT P6SM SCT040 BKN120
     FM241500 21008G15KT P6SM SCT050 BKN120
     FM250000 23008G15KT P6SM VCSH BKN050 OVC120=



000
FTUS46 KPDT 240520
TAFDLS
TAF
KDLS 240520Z 2406/2506 32010G20KT P6SM SCT100 BKN150
     FM241200 31008G15KT P6SM SCT120
     FM241800 32010G20KT P6SM FEW150 SCT250
     FM242300 30010G20KT P6SM SCT150 BKN250=



000
FTUS46 KPDT 240520
TAFYKM
TAF
KYKM 240520Z 2406/2506 32006KT P6SM SCT090 BKN120
     FM241200 30008G15KT P6SM SCT120
     FM242100 28008G15KT P6SM VCSH SCT080 SCT250=



000
FTUS46 KPDT 240520
TAFALW
TAF
KALW 240520Z 2406/2506 14007KT P6SM SCT040 BKN120
     FM241500 21008G15KT P6SM SCT050 BKN120
     FM250000 23008G15KT P6SM VCSH BKN050 OVC120=



000
FTUS46 KPDT 240520
TAFPSC
TAF
KPSC 240520Z 2406/2506 22007KT P6SM FEW080 SCT250
     FM241500 21007KT P6SM FEW120 SCT250
     FM242100 20008G15KT P6SM SCT120 BKN250=



000
FTUS46 KPDT 240520
TAFRDM
TAF
KRDM 240520Z 2406/2506 30008G15KT P6SM FEW040 SCT060 BKN080
     FM241000 VRB04KT P6SM FEW070 SCT090
     FM242100 33008G15KT P6SM FEW120 SCT250=



000
FTUS46 KPDT 240520
TAFPSC
TAF
KPSC 240520Z 2406/2506 22007KT P6SM FEW080 SCT250
     FM241500 21007KT P6SM FEW120 SCT250
     FM242100 20008G15KT P6SM SCT120 BKN250=



000
FTUS46 KPDT 240520
TAFPDT
TAF
KPDT 240520Z 2406/2506 29008G15KT P6SM SCT060
     FM241200 26008G15KT P6SM FEW120
     FM242100 28010G20KT P6SM SCT120 BKN250
     FM250100 28008G15KT P6SM VCSH SCT070 OVC120=



000
FTUS46 KPDT 240420 AAA
TAFRDM
TAF AMD
KRDM 240420Z 2404/2424 30008KT P6SM SCT060
     FM240700 VRB04KT P6SM SCT060
     FM242000 33010KT P6SM SCT250=



000
FTUS46 KPDT 240222 AAA
TAFDLS
TAF AMD
KDLS 240222Z 2402/2424 31015G25KT P6SM FEW150
     FM240700 31015G25KT P6SM SCT060 SCT150
     FM241200 31011G20KT P6SM SCT060
     FM241800 32015G25KT P6SM SCT250=



000
FTUS46 KPDT 240108 AAB
TAFYKM
TAF AMD
KYKM 240108Z 2401/2424 31008G15KT P6SM VCTS BKN050CB OVC090
     FM240300 30008KT P6SM SCT120
     FM242000 VRB06KT P6SM SCT250=



000
FTUS46 KPDT 240019 AAA
TAFYKM
TAF AMD
KYKM 240019Z 2400/2424 35008G15KT P6SM TSRA OVC050CB
     FM240200 30008KT P6SM SCT120
     FM242000 VRB06KT P6SM SCT250=



000
FTUS46 KPDT 240019 AAA
TAFYKM
TAF AMD
KYKM 240019Z 2400/2424 35008G15KT P6SM TSRA OVC050CB
     FM240200 30008KT P6SM SCT120
     FM242000 VRB06KT P6SM SCT250=



000
FTUS46 KPDT 232320
TAFDLS
TAF
KDLS 232320Z 2400/2424 32025G35KT P6SM FEW150
     FM240400 31015G25KT P6SM SCT060 SCT150
     FM241200 31011G20KT P6SM SCT060
     FM241800 32015G25KT P6SM SCT250=



000
FTUS46 KPDT 232320
TAFYKM
TAF
KYKM 232320Z 2400/2424 28007KT P6SM VCSH SCT080
     FM240600 30008KT P6SM SCT120
     FM242000 VRB06KT P6SM SCT250=



000
FTUS46 KPDT 232320
TAFRDM
TAF
KRDM 232320Z 2400/2424 35008G15KT P6SM BKN060
     FM240500 VRB04KT P6SM SCT060
     FM242000 33010KT P6SM SCT250=



000
FTUS46 KPDT 232320
TAFPDT
TAF
KPDT 232320Z 2400/2424 28007KT P6SM SCT045
     FM240600 24007KT P6SM BKN120
     FM241800 28010KT P6SM SCT250=



000
FTUS46 KPDT 232320
TAFPSC
TAF
KPSC 232320Z 2400/2424 21007KT P6SM FEW110
     FM240500 21006KT P6SM FEW150=



000
FTUS46 KPDT 232320
TAFALW
TAF
KALW 232320Z 2400/2424 VRB05KT P6SM SCT040
     FM240300 16008KT P6SM SCT050
     FM241500 21009KT P6SM FEW050=



000
FTUS46 KPDT 231848 AAA
TAFRDM
TAF AMD
KRDM 231848Z 2319/2418 VRB06KT P6SM VCSH BKN025 BKN070
     FM232100 33010G18KT P6SM VCSH BKN100
     FM240500 VRB04KT P6SM FEW070 SCT150=



000
FTUS46 KPDT 231848 AAA
TAFALW
TAF AMD
KALW 231848Z 2319/2418 21010KT P6SM SCT025
     FM240300 16008KT P6SM SCT150
     FM241500 21009KT P6SM SCT040=



000
FTUS46 KPDT 231848 AAA
TAFRDM
TAF AMD
KRDM 231848Z 2319/2418 VRB06KT P6SM VCSH BKN025 BKN070
     FM232100 33010G18KT P6SM VCSH BKN100
     FM240500 VRB04KT P6SM FEW070 SCT150=



000
FTUS46 KPDT 231731
TAFDLS
TAF
KDLS 231731Z 2318/2418 31015G25KT P6SM FEW110 BKN150
     FM231900 31020G28KT P6SM BKN150
     FM240400 31015G22KT P6SM SCT060 SCT150=



000
FTUS46 KPDT 231731
TAFYKM
TAF
KYKM 231731Z 2318/2418 34009KT P6SM SCT100 BKN150
     FM240200 30008KT P6SM SCT120=



000
FTUS46 KPDT 231731
TAFALW
TAF
KALW 231731Z 2318/2418 21012KT P6SM BKN025
     FM231900 22008KT P6SM SCT070
     FM240300 16008KT P6SM SCT150
     FM241500 21009KT P6SM SCT040=



000
FTUS46 KPDT 231731
TAFPSC
TAF
KPSC 231731Z 2318/2418 21010KT P6SM FEW110
     FM240500 21006KT P6SM FEW150=



000
FTUS46 KPDT 231731
TAFRDM
TAF
KRDM 231731Z 2318/2418 VRB06KT P6SM VCSH BKN090
     FM232100 33010G18KT P6SM VCSH BKN100
     FM240500 VRB04KT P6SM FEW070 SCT150=



000
FTUS46 KPDT 231731
TAFPDT
TAF
KPDT 231731Z 2318/2418 25009KT P6SM SCT030 SCT090
     FM232000 28010G18KT P6SM SCT090
     FM240900 24007KT P6SM SCT100 SCT150=



000
FTUS46 KPDT 231607 AAB
TAFALW
TAF AMD
KALW 231607Z 2316/2412 21012KT P6SM SCT020 BKN030
     FM231900 21008KT P6SM SCT070 BKN250
     FM240300 15008KT P6SM BKN250=



000
FTUS46 KPDT 231545 AAB
TAFRDM
TAF AMD
KRDM 231545Z 2316/2412 30007KT P6SM VCSH OVC040
     FM231800 33010G18KT P6SM OVC080
     FM240400 VRB04KT P6SM FEW100 BKN250=



000
FTUS46 KPDT 231509 AAB
TAFPDT
TAF AMD
KPDT 231509Z 2315/2412 20005KT P6SM VCSH OVC030
     FM231800 29010G18KT P6SM SCT070 BKN250
     FM240000 26007KT P6SM BKN250=



000
FTUS46 KPDT 231509 AAB
TAFPDT
TAF AMD
KPDT 231509Z 2315/2412 20005KT P6SM VCSH OVC030
     FM231800 29010G18KT P6SM SCT070 BKN250
     FM240000 26007KT P6SM BKN250=



    US Dept of Commerce
    National Oceanic and Atmospheric Administration
    National Weather Service
    1325 East West Highway
    Silver Spring, MD 20910
    Page Author: NWS Internet Services Team
Disclaimer
Information Quality
Credits
Glossary
Privacy Policy
Freedom of Information Act (FOIA)
About Us
Career Opportunities